createdAt,value
2022-09-04T00:00:19.339Z,49.38
2022-09-04T00:03:23.077Z,49.52
2022-09-04T00:05:58.345Z,49.78
2022-09-04T00:08:50.370Z,49.84
2022-09-04T00:11:36.586Z,49.90
2022-09-04T00:14:14.937Z,50.07
2022-09-04T00:16:55.222Z,49.98
2022-09-04T00:19:39.424Z,50.15
2022-09-04T00:22:22.211Z,50.30
2022-09-04T00:25:02.239Z,50.41
2022-09-04T00:27:45.258Z,50.49
2022-09-04T00:30:22.398Z,50.78
2022-09-04T00:33:02.576Z,50.77
2022-09-04T00:35:39.434Z,51.05
2022-09-04T00:38:18.778Z,51.10
2022-09-04T00:41:02.019Z,51.05
2022-09-04T00:43:58.093Z,51.28
2022-09-04T00:47:06.905Z,51.51
2022-09-04T00:50:00.037Z,51.89
2022-09-04T00:52:57.466Z,51.90
2022-09-04T00:55:49.318Z,52.09
2022-09-04T00:58:52.327Z,52.21
2022-09-04T01:01:29.136Z,52.23
2022-09-04T01:04:19.822Z,52.16
2022-09-04T01:07:05.996Z,52.36
2022-09-04T01:10:17.015Z,52.39
2022-09-04T01:12:59.042Z,52.62
2022-09-04T01:15:41.573Z,52.90
2022-09-04T01:18:21.745Z,53.01
2022-09-04T01:21:22.203Z,53.20
2022-09-04T01:24:25.048Z,53.38
2022-09-04T01:27:06.778Z,53.37
2022-09-04T01:29:51.179Z,53.34
2022-09-04T01:32:35.396Z,53.43
2022-09-04T01:35:16.742Z,53.55
2022-09-04T01:38:01.047Z,53.86
2022-09-04T01:40:40.491Z,54.07
2022-09-04T01:43:17.980Z,54.31
2022-09-04T01:46:23.091Z,54.26
2022-09-04T01:49:02.687Z,54.48
2022-09-04T01:51:45.111Z,54.64
2022-09-04T01:54:35.166Z,54.56
2022-09-04T01:57:17.814Z,54.55
2022-09-04T02:00:03.576Z,54.41
2022-09-04T02:02:53.275Z,54.67
2022-09-04T02:05:38.343Z,54.57
2022-09-04T02:08:36.942Z,54.47
2022-09-04T02:11:16.874Z,54.48
2022-09-04T02:14:10.314Z,54.68
2022-09-04T02:16:56.699Z,54.77
2022-09-04T02:19:43.720Z,54.84
2022-09-04T02:22:26.531Z,54.83
2022-09-04T02:25:07.173Z,54.78
2022-09-04T02:27:47.170Z,54.82
2022-09-04T02:30:21.826Z,54.82
2022-09-04T02:33:06.628Z,54.94
2022-09-04T02:35:47.113Z,55.00
2022-09-04T02:38:30.211Z,54.92
2022-09-04T02:41:12.051Z,54.96
2022-09-04T02:44:03.762Z,55.08
2022-09-04T02:46:50.926Z,55.00
2022-09-04T02:49:32.874Z,55.20
2022-09-04T02:52:27.497Z,55.35
2022-09-04T02:55:14.417Z,55.33
2022-09-04T02:58:01.634Z,55.36
2022-09-04T03:00:46.162Z,55.45
2022-09-04T03:03:24.218Z,55.43
2022-09-04T03:06:06.764Z,55.24
2022-09-04T03:08:48.912Z,55.48
2022-09-04T03:11:35.186Z,55.54
2022-09-04T03:14:16.365Z,55.56
2022-09-04T03:16:57.447Z,55.65
2022-09-04T03:19:37.450Z,55.69
2022-09-04T03:22:19.503Z,55.79
2022-09-04T03:25:08.388Z,55.83
2022-09-04T03:27:41.957Z,55.87
2022-09-04T03:30:17.394Z,56.05
2022-09-04T03:32:57.183Z,56.00
2022-09-04T03:35:36.664Z,56.10
2022-09-04T03:38:24.834Z,56.15
2022-09-04T03:41:11.628Z,56.35
2022-09-04T03:44:06.323Z,56.54
2022-09-04T03:46:54.426Z,56.45
2022-09-04T03:49:43.177Z,56.46
2022-09-04T03:52:26.390Z,56.68
2022-09-04T03:55:16.156Z,56.73
2022-09-04T03:58:09.934Z,56.82
2022-09-04T04:00:52.061Z,56.72
2022-09-04T04:03:39.154Z,56.76
2022-09-04T04:06:25.893Z,56.86
2022-09-04T04:09:24.388Z,56.95
2022-09-04T04:12:10.969Z,57.13
2022-09-04T04:14:59.971Z,57.36
2022-09-04T04:17:55.478Z,57.38
2022-09-04T04:20:43.091Z,57.46
2022-09-04T04:23:39.296Z,57.47
2022-09-04T04:26:18.957Z,57.47
2022-09-04T04:29:15.108Z,57.58
2022-09-04T04:32:12.253Z,57.64
2022-09-04T04:34:58.982Z,57.84
2022-09-04T04:37:44.992Z,57.84
2022-09-04T04:40:28.351Z,57.88
2022-09-04T04:43:11.178Z,57.99
2022-09-04T04:45:54.493Z,58.04
2022-09-04T04:49:04.691Z,58.15
2022-09-04T04:52:04.489Z,58.22
2022-09-04T04:54:52.934Z,58.20
2022-09-04T04:57:33.631Z,58.41
2022-09-04T05:00:25.285Z,58.42
2022-09-04T05:03:15.833Z,58.54
2022-09-04T05:05:58.824Z,58.56
2022-09-04T05:08:42.135Z,58.50
2022-09-04T05:11:24.630Z,58.72
2022-09-04T05:14:08.776Z,58.93
2022-09-04T05:16:56.650Z,59.20
2022-09-04T05:19:38.091Z,59.45
2022-09-04T05:22:21.309Z,59.64
2022-09-04T05:25:04.693Z,59.84
2022-09-04T05:27:49.252Z,59.94
2022-09-04T05:30:34.300Z,60.26
2022-09-04T05:33:17.456Z,60.37
2022-09-04T05:35:57.757Z,60.55
2022-09-04T05:38:38.414Z,60.72
2022-09-04T05:41:25.307Z,60.72
2022-09-04T05:44:11.391Z,60.90
2022-09-04T05:47:00.692Z,60.91
2022-09-04T05:49:48.911Z,61.09
2022-09-04T05:52:36.380Z,60.97
2022-09-04T05:55:32.431Z,60.76
2022-09-04T05:58:31.092Z,60.44
2022-09-04T06:01:23.542Z,60.56
2022-09-04T06:04:26.623Z,60.29
2022-09-04T06:07:09.739Z,60.23
2022-09-04T06:10:01.218Z,60.05
2022-09-04T06:13:01.324Z,59.95
2022-09-04T06:15:46.695Z,59.93
2022-09-04T06:18:38.857Z,59.67
2022-09-04T06:21:51.067Z,59.46
2022-09-04T06:24:43.410Z,59.62
2022-09-04T06:27:41.064Z,59.92
2022-09-04T06:30:18.091Z,58.83
2022-09-04T06:33:27.283Z,58.55
2022-09-04T06:36:28.365Z,58.62
2022-09-04T06:39:24.655Z,57.28
2022-09-04T06:42:13.602Z,57.12
2022-09-04T06:45:05.877Z,56.36
2022-09-04T06:47:51.959Z,51.78
2022-09-04T06:50:32.823Z,49.52
2022-09-04T06:53:21.487Z,46.89
2022-09-04T06:56:04.982Z,43.69
2022-09-04T06:59:06.146Z,41.24
2022-09-04T07:01:51.025Z,39.05
2022-09-04T07:04:40.907Z,36.47
2022-09-04T07:07:27.953Z,33.24
2022-09-04T07:10:10.421Z,32.70
2022-09-04T07:13:24.107Z,31.68
2022-09-04T07:16:15.399Z,29.06
2022-09-04T07:19:04.011Z,29.18
2022-09-04T07:21:44.738Z,29.91
2022-09-04T07:24:49.621Z,28.13
2022-09-04T07:27:36.788Z,29.42
2022-09-04T07:30:12.122Z,27.59
2022-09-04T07:32:53.223Z,27.99
2022-09-04T07:35:36.709Z,28.04
2022-09-04T07:38:23.491Z,27.94
2022-09-04T07:41:06.238Z,28.10
2022-09-04T07:43:52.605Z,28.46
2022-09-04T07:46:38.078Z,28.94
2022-09-04T07:49:21.668Z,29.45
2022-09-04T07:52:01.503Z,30.23
2022-09-04T07:54:54.165Z,31.37
2022-09-04T07:57:54.519Z,32.41
2022-09-04T08:00:29.389Z,32.31
2022-09-04T08:03:34.224Z,31.42
2022-09-04T08:06:18.636Z,30.98
2022-09-04T08:09:17.744Z,29.12
2022-09-04T08:12:09.096Z,27.93
2022-09-04T08:15:05.729Z,26.91
2022-09-04T08:18:11.743Z,25.79
2022-09-04T08:20:53.614Z,24.98
2022-09-04T08:23:57.987Z,25.85
2022-09-04T08:26:39.151Z,25.89
2022-09-04T08:29:34.318Z,25.30
2022-09-04T08:32:18.856Z,24.43
2022-09-04T08:35:04.921Z,25.08
2022-09-04T08:37:51.771Z,25.13
2022-09-04T08:40:52.639Z,25.54
2022-09-04T08:43:38.801Z,25.40
2022-09-04T08:46:45.589Z,26.60
2022-09-04T08:49:48.243Z,27.80
2022-09-04T08:52:40.869Z,29.27
2022-09-04T08:55:40.171Z,29.65
2022-09-04T08:58:48.213Z,30.93
2022-09-04T09:01:45.305Z,31.86
2022-09-04T09:04:46.079Z,32.66
2022-09-04T09:07:45.586Z,33.54
2022-09-04T09:10:44.584Z,34.19
2022-09-04T09:13:55.365Z,34.76
2022-09-04T09:16:44.667Z,35.32
2022-09-04T09:19:38.040Z,35.76
2022-09-04T09:22:38.512Z,36.31
2022-09-04T09:25:27.973Z,36.71
2022-09-04T09:28:25.761Z,37.03
2022-09-04T09:31:28.964Z,37.16
2022-09-04T09:34:55.006Z,37.20
2022-09-04T09:38:04.746Z,37.57
2022-09-04T09:41:08.188Z,37.41
2022-09-04T09:44:08.259Z,37.50
2022-09-04T09:47:11.698Z,37.21
2022-09-04T09:50:14.890Z,37.41
2022-09-04T09:53:16.940Z,37.06
2022-09-04T09:56:32.765Z,36.98
2022-09-04T10:02:52.268Z,36.87
2022-09-04T10:05:55.156Z,36.95
2022-09-04T10:09:09.372Z,36.48
2022-09-04T10:12:22.384Z,36.10
2022-09-04T10:15:39.480Z,36.39
2022-09-04T10:18:49.333Z,36.13
2022-09-04T10:22:04.381Z,35.88
2022-09-04T10:25:06.389Z,35.19
2022-09-04T10:27:56.968Z,35.24
2022-09-04T10:30:37.553Z,34.71
2022-09-04T10:33:33.533Z,34.70
2022-09-04T10:36:26.287Z,34.64
2022-09-04T10:39:32.242Z,34.55
2022-09-04T10:42:22.272Z,34.32
2022-09-04T10:45:12.552Z,34.60
2022-09-04T10:48:18.973Z,34.13
2022-09-04T10:51:22.964Z,33.67
2022-09-04T10:54:30.428Z,33.20
2022-09-04T10:57:18.774Z,33.72
2022-09-04T10:59:59.198Z,32.34
2022-09-04T11:03:03.720Z,32.80
2022-09-04T11:06:03.412Z,33.18
2022-09-04T11:08:56.571Z,33.62
2022-09-04T11:11:55.479Z,33.30
2022-09-04T11:15:11.156Z,33.37
2022-09-04T11:18:07.250Z,33.65
2022-09-04T11:21:12.764Z,33.48
2022-09-04T11:24:33.529Z,33.77
2022-09-04T11:27:31.364Z,33.89
2022-09-04T11:30:17.207Z,33.84
2022-09-04T11:33:33.180Z,33.62
2022-09-04T11:36:35.840Z,33.81
2022-09-04T11:39:39.807Z,33.88
2022-09-04T11:42:43.596Z,33.56
2022-09-04T11:45:49.144Z,33.18
2022-09-04T11:48:51.230Z,33.36
2022-09-04T11:51:55.806Z,33.78
2022-09-04T11:55:01.675Z,33.77
2022-09-04T11:57:48.371Z,33.95
2022-09-04T12:00:22.637Z,33.92
2022-09-04T12:03:31.619Z,33.95
2022-09-04T12:06:16.768Z,33.80
2022-09-04T12:09:27.577Z,34.13
2022-09-04T12:12:29.710Z,34.10
2022-09-04T12:15:28.671Z,34.63
2022-09-04T12:18:22.041Z,33.96
2022-09-04T12:21:38.632Z,32.72
2022-09-04T12:24:33.180Z,30.61
2022-09-04T12:27:40.019Z,28.77
2022-09-04T12:30:21.229Z,26.81
2022-09-04T12:33:20.242Z,26.11
2022-09-04T12:36:39.868Z,26.21
2022-09-04T12:39:54.668Z,26.55
2022-09-04T12:42:34.705Z,26.31
2022-09-04T12:45:22.202Z,27.21
2022-09-04T12:48:10.730Z,28.05
2022-09-04T12:50:53.514Z,28.37
2022-09-04T12:53:52.602Z,28.32
2022-09-04T12:56:44.828Z,28.78
2022-09-04T12:59:42.014Z,28.94
2022-09-04T13:02:28.547Z,29.41
2022-09-04T13:05:14.015Z,30.02
2022-09-04T13:07:58.357Z,30.48
2022-09-04T13:10:38.253Z,30.43
2022-09-04T13:13:25.167Z,30.57
2022-09-04T13:16:05.202Z,30.92
2022-09-04T13:18:49.614Z,31.46
2022-09-04T13:21:36.095Z,31.42
2022-09-04T13:24:25.969Z,31.40
2022-09-04T13:27:26.951Z,31.40
2022-09-04T13:30:09.892Z,31.66
2022-09-04T13:33:05.752Z,31.80
2022-09-04T13:35:59.877Z,31.63
2022-09-04T13:38:59.412Z,31.99
2022-09-04T13:41:59.089Z,31.93
2022-09-04T13:44:51.264Z,31.87
2022-09-04T13:47:32.616Z,31.95
2022-09-04T13:50:14.589Z,31.85
2022-09-04T13:52:52.438Z,32.18
2022-09-04T13:55:50.054Z,32.61
2022-09-04T13:58:30.008Z,33.03
2022-09-04T14:01:08.416Z,33.26
2022-09-04T14:03:46.229Z,33.53
2022-09-04T14:06:22.466Z,33.76
2022-09-04T14:09:04.576Z,33.66
2022-09-04T14:12:09.206Z,33.80
2022-09-04T14:15:12.381Z,33.81
2022-09-04T14:17:58.079Z,33.95
2022-09-04T14:20:37.488Z,34.00
2022-09-04T14:23:21.883Z,33.92
2022-09-04T14:26:04.524Z,34.07
2022-09-04T14:28:47.644Z,34.03
2022-09-04T14:31:33.956Z,33.92
2022-09-04T14:34:17.186Z,33.78
2022-09-04T14:37:02.217Z,33.23
2022-09-04T14:39:42.822Z,33.29
2022-09-04T14:42:28.995Z,33.44
2022-09-04T14:45:19.889Z,33.52
2022-09-04T14:47:57.527Z,33.44
2022-09-04T14:50:34.655Z,33.61
2022-09-04T14:53:10.138Z,33.76
2022-09-04T14:56:05.940Z,33.82
2022-09-04T14:58:47.745Z,33.38
2022-09-04T15:01:25.062Z,33.23
2022-09-04T15:04:02.694Z,33.48
2022-09-04T15:07:07.914Z,33.50
2022-09-04T15:09:41.502Z,33.37
2022-09-04T15:12:25.344Z,33.66
2022-09-04T15:15:11.712Z,33.87
2022-09-04T15:17:51.829Z,33.95
2022-09-04T15:20:28.619Z,33.92
2022-09-04T15:23:07.961Z,33.94
2022-09-04T15:25:59.468Z,33.98
2022-09-04T15:28:41.289Z,33.95
2022-09-04T15:31:18.626Z,34.09
2022-09-04T15:34:00.656Z,34.29
2022-09-04T15:36:36.436Z,34.56
2022-09-04T15:39:18.331Z,34.68
2022-09-04T15:41:52.837Z,34.37
2022-09-04T15:44:31.642Z,34.58
2022-09-04T15:47:16.334Z,34.68
2022-09-04T15:49:55.658Z,34.64
2022-09-04T15:52:40.421Z,35.19
2022-09-04T15:55:26.487Z,35.28
2022-09-04T15:58:08.925Z,35.16
2022-09-04T16:00:56.902Z,35.43
2022-09-04T16:03:38.578Z,35.46
2022-09-04T16:06:21.264Z,35.73
2022-09-04T16:08:58.466Z,35.72
2022-09-04T16:11:36.098Z,35.78
2022-09-04T16:14:18.928Z,35.72
2022-09-04T16:16:56.640Z,35.88
2022-09-04T16:19:36.350Z,35.84
2022-09-04T16:22:22.819Z,35.86
2022-09-04T16:25:07.209Z,36.16
2022-09-04T16:27:50.812Z,36.43
2022-09-04T16:30:36.643Z,36.47
2022-09-04T16:33:27.840Z,36.69
2022-09-04T16:36:07.313Z,36.66
2022-09-04T16:38:46.838Z,36.64
2022-09-04T16:41:26.681Z,36.98
2022-09-04T16:44:21.236Z,37.00
2022-09-04T16:47:09.366Z,37.31
2022-09-04T16:49:54.013Z,37.39
2022-09-04T16:52:54.946Z,37.59
2022-09-04T16:55:58.962Z,37.75
2022-09-04T16:58:47.945Z,37.52
2022-09-04T17:01:28.460Z,37.67
2022-09-04T17:04:23.581Z,37.87
2022-09-04T17:07:05.567Z,38.12
2022-09-04T17:10:03.187Z,38.11
2022-09-04T17:12:50.411Z,38.37
2022-09-04T17:15:34.303Z,38.55
2022-09-04T17:18:11.582Z,38.65
2022-09-04T17:26:29.878Z,38.59
2022-09-04T17:28:57.952Z,38.68
2022-09-04T17:29:08.634Z,38.73
2022-09-04T17:29:55.065Z,38.70
2022-09-04T17:36:01.260Z,38.85
2022-09-04T17:40:34.876Z,38.90
2022-09-04T17:41:31.303Z,38.94
2022-09-04T17:41:57.005Z,39.12
2022-09-04T17:44:51.136Z,39.10
2022-09-04T17:47:34.530Z,39.38
2022-09-04T17:50:17.435Z,39.45
2022-09-04T17:53:02.441Z,39.47
2022-09-04T17:55:39.036Z,39.57
2022-09-04T17:58:35.298Z,39.68
2022-09-04T18:01:15.958Z,39.74
2022-09-04T18:04:19.981Z,39.85
2022-09-04T18:07:28.710Z,39.93
2022-09-04T18:10:08.759Z,39.94
2022-09-04T18:12:47.955Z,40.07
2022-09-04T18:15:33.592Z,40.11
2022-09-04T18:18:24.817Z,40.19
2022-09-04T18:21:10.242Z,40.33
2022-09-04T18:23:54.699Z,40.29
2022-09-04T18:26:41.664Z,40.26
2022-09-04T18:31:55.797Z,40.47
2022-09-04T18:37:08.883Z,40.39
2022-09-04T18:37:19.639Z,40.55
2022-09-04T18:39:08.246Z,40.52
2022-09-04T18:50:24.715Z,40.34
2022-09-04T18:50:28.626Z,40.38
2022-09-04T18:50:48.821Z,40.50
2022-09-04T18:51:20.777Z,40.54
2022-09-04T18:54:01.660Z,40.61
2022-09-04T18:56:44.535Z,40.51
2022-09-04T18:59:25.442Z,40.54
2022-09-04T19:02:07.138Z,40.45
2022-09-04T19:04:53.473Z,40.52
2022-09-04T19:07:35.433Z,40.58
2022-09-04T19:10:19.754Z,40.59
2022-09-04T19:13:03.313Z,40.38
2022-09-04T19:15:50.468Z,40.39
2022-09-04T19:18:35.852Z,40.45
2022-09-04T19:21:23.353Z,40.56
2022-09-04T19:24:08.046Z,40.40
2022-09-04T19:26:47.553Z,40.40
2022-09-04T19:29:28.105Z,40.55
2022-09-04T19:32:10.714Z,40.48
2022-09-04T19:34:50.800Z,40.55
2022-09-04T19:38:46.371Z,40.76
2022-09-04T19:46:02.982Z,40.57
2022-09-04T19:46:17.047Z,40.62
2022-09-04T19:46:44.467Z,40.64
2022-09-04T19:50:54.039Z,40.74
2022-09-04T19:53:32.907Z,40.83
2022-09-04T19:55:25.265Z,40.87
2022-09-04T19:58:11.235Z,40.94
2022-09-04T20:00:52.753Z,41.08
2022-09-04T20:03:32.183Z,41.12
2022-09-04T20:06:20.408Z,41.31
2022-09-04T20:09:07.505Z,41.36
2022-09-04T20:11:48.203Z,41.39
2022-09-04T20:14:29.832Z,41.43
2022-09-04T20:17:15.898Z,41.56
2022-09-04T20:19:54.345Z,41.53
2022-09-04T20:22:34.317Z,41.45
2022-09-04T20:25:29.170Z,41.69
2022-09-04T20:28:17.829Z,41.60
2022-09-04T20:31:35.569Z,41.79
2022-09-04T20:34:12.110Z,41.96
2022-09-04T20:36:54.705Z,42.01
2022-09-04T20:39:37.301Z,42.06
2022-09-04T20:42:20.805Z,42.20
2022-09-04T20:47:32.021Z,42.15
2022-09-04T20:52:42.866Z,42.02
2022-09-04T20:52:51.139Z,42.03
2022-09-04T20:54:12.717Z,42.14
2022-09-04T20:58:46.465Z,42.16
2022-09-04T21:03:10.760Z,42.09
2022-09-04T21:03:19.261Z,42.00
2022-09-04T21:06:12.998Z,41.93
2022-09-04T21:08:54.111Z,41.93
2022-09-04T21:11:40.720Z,41.99
2022-09-04T21:14:22.508Z,41.86
2022-09-04T21:17:34.740Z,41.90
2022-09-04T21:20:26.472Z,41.59
2022-09-04T21:23:41.074Z,41.71
2022-09-04T21:26:33.874Z,41.69
2022-09-04T21:29:34.796Z,41.52
2022-09-04T21:32:42.358Z,41.54
2022-09-04T21:35:23.088Z,41.28
2022-09-04T21:38:04.674Z,41.36
2022-09-04T21:41:03.065Z,41.23
2022-09-04T21:44:10.447Z,41.22
2022-09-04T21:47:08.462Z,41.09
2022-09-04T21:50:14.531Z,41.15
2022-09-04T21:53:05.159Z,41.22
2022-09-04T22:00:32.047Z,41.17
2022-09-04T22:02:41.885Z,41.11
2022-09-04T22:02:42.952Z,40.99
2022-09-04T22:05:19.723Z,40.78
2022-09-04T22:13:28.868Z,40.94
2022-09-04T22:13:33.435Z,40.76
2022-09-04T22:14:11.908Z,40.65
2022-09-04T22:17:09.020Z,40.40
2022-09-04T22:20:18.518Z,40.39
2022-09-04T22:23:25.219Z,40.45
2022-09-04T22:26:24.846Z,40.39
2022-09-04T22:29:39.377Z,40.48
2022-09-04T22:32:45.542Z,40.52
2022-09-04T22:36:04.215Z,40.28
2022-09-04T22:38:53.318Z,40.32
2022-09-04T22:41:48.827Z,40.26
2022-09-04T22:44:38.495Z,40.08
2022-09-04T22:47:36.227Z,40.06
2022-09-04T22:50:50.240Z,40.21
2022-09-04T22:53:46.859Z,40.34
2022-09-04T22:56:30.113Z,40.33
2022-09-04T22:59:25.740Z,40.30
2022-09-04T23:03:06.456Z,40.16
2022-09-04T23:07:35.426Z,40.29
2022-09-04T23:13:48.523Z,40.44
2022-09-04T23:13:52.519Z,40.55
2022-09-04T23:16:18.455Z,40.43
2022-09-04T23:24:28.544Z,40.52
2022-09-04T23:26:36.244Z,40.55
2022-09-04T23:26:42.531Z,40.56
2022-09-04T23:29:22.074Z,40.48
2022-09-04T23:32:16.043Z,40.42
2022-09-04T23:35:34.458Z,40.48
2022-09-04T23:38:58.001Z,40.58
2022-09-04T23:41:57.707Z,40.60
2022-09-04T23:45:25.373Z,40.54
2022-09-04T23:48:42.013Z,40.51
2022-09-04T23:51:42.412Z,40.50
2022-09-04T23:55:03.439Z,40.54
2022-09-04T23:58:00.211Z,40.61
